createdAt,value
2023-01-29T00:01:51.808Z,8.13
2023-01-29T00:04:22.433Z,8.00
2023-01-29T00:06:51.475Z,7.40
2023-01-29T00:09:20.551Z,8.17
2023-01-29T00:11:49.497Z,7.67
2023-01-29T00:14:18.325Z,8.43
2023-01-29T00:16:47.411Z,7.73
2023-01-29T00:19:16.283Z,7.77
2023-01-29T00:21:46.582Z,9.17
2023-01-29T00:24:15.681Z,8.63
2023-01-29T00:26:44.489Z,8.30
2023-01-29T00:29:14.173Z,7.70
2023-01-29T00:31:46.912Z,7.47
2023-01-29T00:34:16.038Z,9.53
2023-01-29T00:36:48.822Z,10.67
2023-01-29T00:39:19.163Z,7.57
2023-01-29T00:42:05.762Z,7.93
2023-01-29T00:44:52.047Z,9.40
2023-01-29T00:47:33.928Z,8.97
2023-01-29T00:50:04.071Z,8.40
2023-01-29T00:52:36.566Z,7.70
2023-01-29T00:55:07.145Z,8.43
2023-01-29T00:57:37.296Z,7.87
2023-01-29T01:00:10.066Z,8.97
2023-01-29T01:02:56.361Z,9.27
2023-01-29T01:05:29.401Z,8.87
2023-01-29T01:08:04.835Z,7.67
2023-01-29T01:10:38.794Z,9.67
2023-01-29T01:13:09.419Z,8.43
2023-01-29T01:15:42.454Z,8.13
2023-01-29T01:18:12.695Z,7.90
2023-01-29T01:20:41.893Z,7.87
2023-01-29T01:23:12.554Z,6.03
2023-01-29T01:25:43.675Z,7.90
2023-01-29T01:28:12.969Z,8.57
2023-01-29T01:30:42.650Z,8.03
2023-01-29T01:33:11.605Z,8.13
2023-01-29T01:35:41.291Z,8.90
2023-01-29T01:38:11.754Z,7.73
2023-01-29T01:40:47.012Z,7.77
2023-01-29T01:43:16.314Z,7.80
2023-01-29T01:45:46.879Z,8.93
2023-01-29T01:48:20.707Z,7.40
2023-01-29T01:50:52.604Z,8.17
2023-01-29T01:53:28.035Z,8.40
2023-01-29T01:56:02.187Z,7.50
2023-01-29T01:58:36.130Z,8.83
2023-01-29T02:01:08.786Z,8.93
2023-01-29T02:04:02.363Z,7.40
2023-01-29T02:06:49.369Z,8.03
2023-01-29T02:09:36.047Z,7.07
2023-01-29T02:12:07.965Z,9.47
2023-01-29T02:14:40.275Z,8.27
2023-01-29T02:17:11.377Z,7.23
2023-01-29T02:19:48.507Z,8.30
2023-01-29T02:22:47.835Z,8.43
2023-01-29T02:25:52.888Z,9.43
2023-01-29T02:28:40.392Z,10.00
2023-01-29T02:31:17.182Z,8.20
2023-01-29T02:33:55.555Z,7.33
2023-01-29T02:36:34.248Z,8.27
2023-01-29T02:39:11.517Z,8.30
2023-01-29T02:41:45.857Z,8.93
2023-01-29T02:44:25.015Z,9.37
2023-01-29T02:47:01.709Z,8.80
2023-01-29T02:49:36.895Z,8.43
2023-01-29T02:52:15.698Z,10.57
2023-01-29T02:54:52.666Z,9.60
2023-01-29T02:57:25.085Z,7.40
2023-01-29T03:00:00.789Z,8.87
2023-01-29T03:02:36.114Z,7.87
2023-01-29T03:05:13.366Z,8.30
2023-01-29T03:07:47.935Z,8.17
2023-01-29T03:10:34.332Z,8.67
2023-01-29T03:13:08.738Z,10.07
2023-01-29T03:15:47.029Z,7.53
2023-01-29T03:18:46.066Z,8.23
2023-01-29T03:21:37.642Z,8.50
2023-01-29T03:24:27.022Z,8.27
2023-01-29T03:27:13.111Z,8.20
2023-01-29T03:30:05.291Z,8.83
2023-01-29T03:32:53.274Z,9.33
2023-01-29T03:35:35.542Z,8.90
2023-01-29T03:38:07.695Z,7.90
2023-01-29T03:40:42.446Z,8.60
2023-01-29T03:43:14.928Z,8.67
2023-01-29T03:45:55.088Z,8.90
2023-01-29T03:48:34.295Z,8.23
2023-01-29T03:51:13.361Z,9.60
2023-01-29T03:53:45.895Z,8.47
2023-01-29T03:56:26.123Z,8.10
2023-01-29T03:59:00.704Z,8.10
2023-01-29T04:01:48.885Z,10.30
2023-01-29T04:04:25.569Z,8.03
2023-01-29T04:06:59.438Z,10.97
2023-01-29T04:09:35.874Z,8.40
2023-01-29T04:12:10.540Z,8.53
2023-01-29T04:14:42.396Z,8.60
2023-01-29T04:17:17.543Z,9.57
2023-01-29T04:20:10.620Z,9.20
2023-01-29T04:22:41.894Z,8.27
2023-01-29T04:25:16.158Z,9.43
2023-01-29T04:27:54.285Z,7.37
2023-01-29T04:30:36.421Z,10.33
2023-01-29T04:33:13.265Z,8.37
2023-01-29T04:35:56.353Z,9.37
2023-01-29T04:38:35.420Z,10.73
2023-01-29T04:41:11.550Z,10.27
2023-01-29T04:43:46.051Z,8.37
2023-01-29T04:46:23.729Z,9.60
2023-01-29T04:49:03.196Z,11.10
2023-01-29T04:51:46.031Z,10.47
2023-01-29T04:54:22.588Z,8.70
2023-01-29T04:56:57.981Z,11.63
2023-01-29T04:59:35.223Z,8.07
2023-01-29T05:02:05.661Z,8.30
2023-01-29T05:04:35.841Z,10.73
2023-01-29T05:07:10.022Z,11.03
2023-01-29T05:09:40.850Z,10.33
2023-01-29T05:12:12.416Z,9.77
2023-01-29T05:14:44.052Z,9.40
2023-01-29T05:17:17.751Z,9.87
2023-01-29T05:19:47.587Z,11.10
2023-01-29T05:22:22.861Z,10.00
2023-01-29T05:24:54.228Z,8.80
2023-01-29T05:27:45.957Z,8.57
2023-01-29T05:30:15.582Z,11.50
2023-01-29T05:32:44.829Z,9.30
2023-01-29T05:35:14.147Z,8.40
2023-01-29T05:37:44.949Z,10.10
2023-01-29T05:40:17.071Z,8.00
2023-01-29T05:42:48.143Z,8.53
2023-01-29T05:45:17.718Z,9.03
2023-01-29T05:47:50.120Z,9.63
2023-01-29T05:50:19.757Z,7.63
2023-01-29T05:52:50.808Z,9.37
2023-01-29T05:55:25.399Z,12.37
2023-01-29T05:57:55.276Z,8.50
2023-01-29T06:00:24.709Z,10.67
2023-01-29T06:02:57.441Z,9.50
2023-01-29T06:05:26.825Z,9.00
2023-01-29T06:07:57.646Z,11.40
2023-01-29T06:10:26.947Z,9.43
2023-01-29T06:12:56.329Z,11.03
2023-01-29T06:15:26.662Z,9.80
2023-01-29T06:17:55.685Z,9.73
2023-01-29T06:20:26.032Z,10.27
2023-01-29T06:22:54.874Z,11.27
2023-01-29T06:25:25.318Z,10.50
2023-01-29T06:27:54.141Z,10.97
2023-01-29T06:30:22.985Z,10.37
2023-01-29T06:32:58.923Z,9.43
2023-01-29T06:35:27.959Z,8.50
2023-01-29T06:38:00.859Z,13.03
2023-01-29T06:40:31.300Z,11.83
2023-01-29T06:43:03.503Z,11.73
2023-01-29T06:45:32.313Z,10.60
2023-01-29T06:48:01.648Z,9.93
2023-01-29T06:50:30.681Z,10.53
2023-01-29T06:53:00.970Z,10.93
2023-01-29T06:55:31.621Z,11.30
2023-01-29T06:58:01.448Z,9.43
2023-01-29T07:00:31.532Z,12.60
2023-01-29T07:03:00.663Z,10.30
2023-01-29T07:05:30.020Z,9.93
2023-01-29T07:07:59.315Z,9.40
2023-01-29T07:10:28.101Z,11.67
2023-01-29T07:13:02.087Z,9.53
2023-01-29T07:15:31.211Z,11.40
2023-01-29T07:18:01.301Z,11.40
2023-01-29T07:20:31.878Z,10.60
2023-01-29T07:23:00.792Z,9.40
2023-01-29T07:25:30.797Z,9.80
2023-01-29T07:28:03.712Z,10.17
2023-01-29T07:30:32.882Z,10.33
2023-01-29T07:33:07.662Z,12.03
2023-01-29T07:35:39.713Z,15.37
2023-01-29T07:38:09.233Z,10.77
2023-01-29T07:40:38.549Z,11.40
2023-01-29T07:43:09.528Z,11.60
2023-01-29T07:45:40.045Z,15.13
2023-01-29T07:48:11.229Z,10.50
2023-01-29T07:50:41.014Z,9.77
2023-01-29T07:53:13.807Z,9.23
2023-01-29T07:55:45.099Z,10.30
2023-01-29T07:58:15.447Z,13.83
2023-01-29T08:00:44.591Z,9.47
2023-01-29T08:03:16.254Z,11.83
2023-01-29T08:05:45.401Z,11.33
2023-01-29T08:08:14.772Z,13.47
2023-01-29T08:10:44.096Z,11.90
2023-01-29T08:13:14.448Z,10.50
2023-01-29T08:15:46.454Z,13.20
2023-01-29T08:18:16.053Z,11.80
2023-01-29T08:20:45.289Z,9.93
2023-01-29T08:23:16.663Z,9.90
2023-01-29T08:25:47.894Z,13.27
2023-01-29T08:28:18.393Z,10.87
2023-01-29T08:30:47.415Z,10.33
2023-01-29T08:33:17.682Z,11.77
2023-01-29T08:35:51.113Z,10.80
2023-01-29T08:38:20.412Z,11.77
2023-01-29T08:40:49.237Z,11.67
2023-01-29T08:43:19.547Z,11.00
2023-01-29T08:45:49.818Z,10.77
2023-01-29T08:48:18.562Z,12.83
2023-01-29T08:50:47.563Z,10.40
2023-01-29T08:53:16.608Z,13.70
2023-01-29T08:55:47.888Z,10.43
2023-01-29T08:58:16.679Z,11.37
2023-01-29T09:00:46.877Z,14.67
2023-01-29T09:03:15.860Z,14.20
2023-01-29T09:05:44.722Z,13.43
2023-01-29T09:08:13.937Z,13.23
2023-01-29T09:10:42.626Z,11.67
2023-01-29T09:13:11.469Z,12.57
2023-01-29T09:15:40.105Z,16.20
2023-01-29T09:18:10.927Z,12.27
2023-01-29T09:20:39.795Z,12.27
2023-01-29T09:23:09.368Z,17.63
2023-01-29T09:25:39.590Z,14.10
2023-01-29T09:28:08.305Z,13.33
2023-01-29T09:30:38.289Z,13.10
2023-01-29T09:33:07.484Z,14.13
2023-01-29T09:35:37.955Z,17.67
2023-01-29T09:38:06.757Z,13.90
2023-01-29T09:40:40.472Z,9.77
2023-01-29T09:43:14.445Z,13.93
2023-01-29T09:45:51.126Z,11.93
2023-01-29T09:48:21.001Z,10.67
2023-01-29T09:50:55.214Z,12.43
2023-01-29T09:53:30.801Z,9.80
2023-01-29T09:56:03.930Z,10.67
2023-01-29T09:58:35.907Z,12.03
2023-01-29T10:01:14.666Z,12.17
2023-01-29T10:04:19.601Z,11.20
2023-01-29T10:07:03.924Z,9.33
2023-01-29T10:10:03.987Z,10.73
2023-01-29T10:12:51.599Z,12.53
2023-01-29T10:15:32.531Z,9.87
2023-01-29T10:18:26.066Z,13.00
2023-01-29T10:21:07.096Z,8.90
2023-01-29T10:23:40.072Z,10.43
2023-01-29T10:26:13.594Z,8.77
2023-01-29T10:28:46.662Z,10.40
2023-01-29T10:31:19.795Z,11.33
2023-01-29T10:34:02.543Z,11.73
2023-01-29T10:36:37.813Z,10.97
2023-01-29T10:39:13.567Z,13.10
2023-01-29T10:42:06.865Z,11.33
2023-01-29T10:44:47.812Z,15.97
2023-01-29T10:47:43.743Z,11.60
2023-01-29T10:50:24.596Z,10.77
2023-01-29T10:53:16.749Z,11.77
2023-01-29T10:55:59.412Z,13.30
2023-01-29T10:58:35.681Z,13.30
2023-01-29T11:01:04.866Z,11.97
2023-01-29T11:03:35.821Z,11.70
2023-01-29T11:06:13.081Z,14.30
2023-01-29T11:08:47.628Z,11.70
2023-01-29T11:11:19.397Z,10.70
2023-01-29T11:13:54.687Z,14.10
2023-01-29T11:16:23.380Z,11.03
2023-01-29T11:18:58.321Z,11.77
2023-01-29T11:21:29.565Z,12.03
2023-01-29T11:24:12.889Z,12.20
2023-01-29T11:26:45.360Z,10.67
2023-01-29T11:29:38.439Z,12.03
2023-01-29T11:32:09.856Z,12.17
2023-01-29T11:34:58.680Z,12.00
2023-01-29T11:37:34.887Z,11.43
2023-01-29T11:40:29.330Z,12.83
2023-01-29T11:43:28.106Z,12.13
2023-01-29T11:45:59.885Z,12.53
2023-01-29T11:48:42.558Z,17.03
2023-01-29T11:51:14.549Z,14.07
2023-01-29T11:53:46.048Z,13.90
2023-01-29T11:56:23.163Z,12.37
2023-01-29T11:58:56.539Z,10.93
2023-01-29T12:01:33.435Z,9.87
2023-01-29T12:04:04.081Z,22.33
2023-01-29T12:06:37.204Z,16.63
2023-01-29T12:09:16.972Z,10.23
2023-01-29T12:11:46.417Z,14.10
2023-01-29T12:14:33.556Z,12.70
2023-01-29T12:17:07.815Z,15.00
2023-01-29T12:19:43.927Z,12.20
2023-01-29T12:22:17.890Z,12.10
2023-01-29T12:24:52.960Z,12.10
2023-01-29T12:27:29.234Z,11.13
2023-01-29T12:30:06.462Z,12.33
2023-01-29T12:32:44.733Z,14.47
2023-01-29T12:35:19.317Z,12.27
2023-01-29T12:37:56.182Z,15.37
2023-01-29T12:40:30.683Z,13.77
2023-01-29T12:43:06.252Z,14.10
2023-01-29T12:45:43.271Z,12.93
2023-01-29T12:48:16.211Z,13.97
2023-01-29T12:50:46.467Z,17.30
2023-01-29T12:53:26.932Z,37.23
2023-01-29T12:56:01.195Z,68.27
2023-01-29T12:58:36.798Z,24.37
2023-01-29T13:01:17.777Z,23.33
2023-01-29T13:03:53.728Z,15.20
2023-01-29T13:06:27.144Z,13.73
2023-01-29T13:08:59.468Z,16.23
2023-01-29T13:11:35.423Z,16.23
2023-01-29T13:14:10.916Z,15.27
2023-01-29T13:16:45.744Z,12.80
2023-01-29T13:19:24.159Z,12.50
2023-01-29T13:21:54.326Z,13.83
2023-01-29T13:24:26.275Z,13.97
2023-01-29T13:26:55.386Z,12.23
2023-01-29T13:29:26.560Z,13.60
2023-01-29T13:31:58.297Z,15.07
2023-01-29T13:34:29.909Z,13.60
2023-01-29T13:37:02.803Z,12.83
2023-01-29T13:39:34.287Z,13.50
2023-01-29T13:42:16.592Z,14.83
2023-01-29T13:44:50.271Z,14.73
2023-01-29T13:47:28.066Z,17.07
2023-01-29T13:50:01.144Z,18.13
2023-01-29T13:52:37.217Z,12.33
2023-01-29T13:55:09.707Z,16.00
2023-01-29T13:57:56.912Z,14.57
2023-01-29T14:01:01.349Z,35.40
2023-01-29T14:04:03.704Z,15.13
2023-01-29T14:06:58.638Z,16.47
2023-01-29T14:10:06.828Z,13.07
2023-01-29T14:12:47.962Z,13.63
2023-01-29T14:15:30.780Z,12.67
2023-01-29T14:18:18.940Z,11.57
2023-01-29T14:20:59.191Z,12.30
2023-01-29T14:23:42.370Z,12.00
2023-01-29T14:26:28.629Z,14.10
2023-01-29T14:29:02.956Z,12.03
2023-01-29T14:31:51.733Z,9.83
2023-01-29T14:34:28.231Z,11.47
2023-01-29T14:37:05.905Z,13.13
2023-01-29T14:39:38.539Z,12.87
2023-01-29T14:42:19.423Z,14.00
2023-01-29T14:45:12.501Z,10.17
2023-01-29T14:47:55.949Z,10.67
2023-01-29T14:51:00.883Z,19.13
2023-01-29T14:53:46.783Z,14.47
2023-01-29T14:56:21.256Z,16.60
2023-01-29T14:58:56.227Z,11.30
2023-01-29T15:01:31.275Z,12.60
2023-01-29T15:04:04.636Z,12.17
2023-01-29T15:06:40.419Z,10.77
2023-01-29T15:09:16.370Z,10.53
2023-01-29T15:11:55.213Z,14.73
2023-01-29T15:14:30.371Z,15.60
2023-01-29T15:17:21.023Z,13.77
2023-01-29T15:19:50.444Z,14.90
2023-01-29T15:22:21.112Z,12.20
2023-01-29T15:25:08.601Z,11.17
2023-01-29T15:27:37.588Z,13.60
2023-01-29T15:30:09.368Z,12.53
2023-01-29T15:32:40.981Z,13.43
2023-01-29T15:35:19.530Z,15.83
2023-01-29T15:38:00.703Z,15.47
2023-01-29T15:40:31.660Z,16.17
2023-01-29T15:43:00.723Z,13.43
2023-01-29T15:45:32.515Z,13.10
2023-01-29T15:48:06.771Z,12.53
2023-01-29T15:50:40.863Z,15.70
2023-01-29T15:53:14.879Z,13.60
2023-01-29T15:55:45.560Z,14.13
2023-01-29T15:58:18.483Z,12.37
2023-01-29T16:00:51.737Z,14.97
2023-01-29T16:03:24.875Z,12.17
2023-01-29T16:05:54.804Z,13.27
2023-01-29T16:08:25.074Z,12.83
2023-01-29T16:10:57.858Z,12.43
2023-01-29T16:13:28.969Z,13.93
2023-01-29T16:15:59.969Z,13.33
2023-01-29T16:18:35.169Z,13.73
2023-01-29T16:21:08.900Z,15.67
2023-01-29T16:23:43.363Z,14.53
2023-01-29T16:26:18.796Z,18.37
2023-01-29T16:28:48.670Z,15.63
2023-01-29T16:31:25.313Z,15.07
2023-01-29T16:33:54.983Z,15.87
2023-01-29T16:36:25.915Z,17.90
2023-01-29T16:38:56.995Z,16.10
2023-01-29T16:41:36.043Z,14.67
2023-01-29T16:44:28.113Z,15.27
2023-01-29T16:46:56.778Z,16.50
2023-01-29T16:49:49.938Z,14.53
2023-01-29T16:52:23.958Z,14.53
2023-01-29T16:54:53.014Z,17.30
2023-01-29T16:57:26.511Z,20.30
2023-01-29T16:59:57.303Z,17.70
2023-01-29T17:02:29.419Z,15.93
2023-01-29T17:05:01.518Z,15.17
2023-01-29T17:07:31.347Z,18.57
2023-01-29T17:10:02.961Z,16.47
2023-01-29T17:12:35.430Z,17.70
2023-01-29T17:15:27.205Z,17.93
2023-01-29T17:17:56.048Z,20.30
2023-01-29T17:20:26.908Z,16.83
2023-01-29T17:22:55.770Z,19.77
2023-01-29T17:25:30.565Z,20.53
2023-01-29T17:28:04.048Z,19.87
2023-01-29T17:30:37.408Z,16.93
2023-01-29T17:33:16.574Z,19.47
2023-01-29T17:35:49.216Z,17.17
2023-01-29T17:38:26.371Z,17.77
2023-01-29T17:40:58.721Z,21.70
2023-01-29T17:43:30.281Z,18.83
2023-01-29T17:46:02.112Z,19.53
2023-01-29T17:48:32.367Z,21.63
2023-01-29T17:51:09.090Z,20.87
2023-01-29T17:53:46.663Z,19.80
2023-01-29T17:56:18.310Z,19.67
2023-01-29T17:59:40.314Z,20.33
2023-01-29T18:02:29.054Z,20.13
2023-01-29T18:05:02.528Z,24.30
2023-01-29T18:07:31.282Z,22.63
2023-01-29T18:10:03.428Z,23.67
2023-01-29T18:12:38.166Z,29.60
2023-01-29T18:15:07.907Z,25.73
2023-01-29T18:17:38.550Z,25.20
2023-01-29T18:20:20.343Z,25.93
2023-01-29T18:22:49.569Z,23.40
2023-01-29T18:25:18.720Z,25.10
2023-01-29T18:27:47.813Z,23.13
2023-01-29T18:30:17.548Z,26.07
2023-01-29T18:32:53.489Z,26.43
2023-01-29T18:35:23.016Z,27.50
2023-01-29T18:37:52.539Z,28.40
2023-01-29T18:40:24.133Z,28.63
2023-01-29T18:42:54.348Z,26.80
2023-01-29T18:45:23.075Z,32.83
2023-01-29T18:47:53.228Z,26.73
2023-01-29T18:50:23.548Z,26.43
2023-01-29T18:52:52.420Z,24.40
2023-01-29T18:55:21.221Z,28.60
2023-01-29T18:58:26.997Z,29.67
2023-01-29T19:00:43.916Z,27.93
2023-01-29T19:03:14.202Z,27.90
2023-01-29T19:05:43.065Z,27.23
2023-01-29T19:08:12.192Z,30.97
2023-01-29T19:10:41.973Z,29.73
2023-01-29T19:13:10.827Z,31.30
2023-01-29T19:15:44.464Z,30.93
2023-01-29T19:18:15.373Z,33.57
2023-01-29T19:20:44.435Z,38.87
2023-01-29T19:23:16.144Z,41.70
2023-01-29T19:25:45.248Z,37.60
2023-01-29T19:28:14.806Z,41.87
2023-01-29T19:30:43.963Z,37.53
2023-01-29T19:33:14.952Z,39.33
2023-01-29T19:35:46.305Z,42.53
2023-01-29T19:38:18.979Z,36.23
2023-01-29T19:40:47.790Z,37.97
2023-01-29T19:43:17.809Z,32.10
2023-01-29T19:45:50.275Z,30.90
2023-01-29T19:48:22.050Z,28.33
2023-01-29T19:50:54.772Z,30.73
2023-01-29T19:53:24.218Z,25.03
2023-01-29T19:55:59.552Z,26.17
2023-01-29T19:58:29.013Z,25.77
2023-01-29T20:00:58.493Z,26.10
2023-01-29T20:03:30.169Z,30.93
2023-01-29T20:06:03.969Z,26.20
2023-01-29T20:08:33.410Z,28.03
2023-01-29T20:11:02.758Z,30.83
2023-01-29T20:13:31.741Z,34.63
2023-01-29T20:16:03.948Z,36.77
2023-01-29T20:18:34.415Z,33.20
2023-01-29T20:21:09.465Z,39.37
2023-01-29T20:23:40.091Z,40.87
2023-01-29T20:26:09.847Z,35.87
2023-01-29T20:28:38.756Z,33.00
2023-01-29T20:31:08.324Z,36.10
2023-01-29T20:33:39.687Z,31.77
2023-01-29T20:36:38.243Z,34.23
2023-01-29T20:39:09.213Z,32.23
2023-01-29T20:41:42.822Z,31.60
2023-01-29T20:45:02.703Z,32.97
2023-01-29T20:47:31.474Z,35.67
2023-01-29T20:50:08.412Z,38.30
2023-01-29T20:52:37.449Z,31.93
2023-01-29T20:55:08.072Z,32.80
2023-01-29T20:57:40.293Z,29.20
2023-01-29T21:00:10.475Z,33.10
2023-01-29T21:02:39.313Z,30.80
2023-01-29T21:05:09.937Z,31.53
2023-01-29T21:07:38.654Z,30.47
2023-01-29T21:10:08.559Z,32.07
2023-01-29T21:12:40.798Z,32.53
2023-01-29T21:15:10.798Z,33.63
2023-01-29T21:17:39.259Z,32.20
2023-01-29T21:20:10.927Z,31.63
2023-01-29T21:22:42.487Z,33.47
2023-01-29T21:25:12.273Z,30.23
2023-01-29T21:27:40.890Z,34.03
2023-01-29T21:30:10.695Z,34.83
2023-01-29T21:32:39.308Z,33.73
2023-01-29T21:35:10.359Z,34.20
2023-01-29T21:37:39.120Z,33.87
2023-01-29T21:40:33.700Z,33.13
2023-01-29T21:43:13.359Z,34.80
2023-01-29T21:45:42.731Z,30.73
2023-01-29T21:48:12.729Z,33.00
2023-01-29T21:50:42.933Z,35.97
2023-01-29T21:53:11.580Z,36.90
2023-01-29T21:55:40.299Z,34.73
2023-01-29T21:58:08.971Z,34.83
2023-01-29T22:00:37.724Z,37.53
2023-01-29T22:03:06.941Z,37.53
2023-01-29T22:05:35.735Z,38.47
2023-01-29T22:08:05.879Z,37.17
2023-01-29T22:10:36.577Z,33.70
2023-01-29T22:13:05.389Z,34.73
2023-01-29T22:15:34.070Z,33.00
2023-01-29T22:18:02.898Z,35.57
2023-01-29T22:20:37.088Z,34.83
2023-01-29T22:23:07.544Z,30.77
2023-01-29T22:25:36.264Z,33.60
2023-01-29T22:28:05.181Z,30.47
2023-01-29T22:30:33.839Z,33.67
2023-01-29T22:33:02.574Z,29.93
2023-01-29T22:35:31.399Z,33.97
2023-01-29T22:38:00.236Z,30.67
2023-01-29T22:40:30.476Z,34.30
2023-01-29T22:43:00.123Z,32.47
2023-01-29T22:45:28.830Z,32.37
2023-01-29T22:47:57.739Z,36.70
2023-01-29T22:50:28.574Z,34.20
2023-01-29T22:52:57.267Z,32.90
2023-01-29T22:55:25.945Z,34.20
2023-01-29T22:57:56.236Z,36.87
2023-01-29T23:00:24.945Z,34.03
2023-01-29T23:02:56.389Z,34.83
2023-01-29T23:05:28.083Z,34.30
2023-01-29T23:07:56.808Z,38.17
2023-01-29T23:10:25.711Z,38.23
2023-01-29T23:12:56.102Z,32.70
2023-01-29T23:15:24.907Z,38.27
2023-01-29T23:18:01.085Z,36.00
2023-01-29T23:20:29.998Z,36.70
2023-01-29T23:22:58.794Z,38.70
2023-01-29T23:25:48.014Z,33.97
2023-01-29T23:28:23.123Z,35.17
2023-01-29T23:30:52.209Z,33.97
2023-01-29T23:33:27.208Z,32.83
2023-01-29T23:35:56.241Z,35.77
2023-01-29T23:38:25.087Z,35.73
2023-01-29T23:40:53.801Z,34.30
2023-01-29T23:43:24.138Z,35.27
2023-01-29T23:45:53.331Z,34.20
2023-01-29T23:48:23.207Z,33.27
2023-01-29T23:50:52.375Z,34.13
2023-01-29T23:53:21.235Z,34.13
2023-01-29T23:55:59.846Z,33.93
2023-01-29T23:58:32.889Z,32.83
